sensor_id;sensor_type;location;lat;lon;timestamp;P1;durP1;ratioP1;P2;durP2;ratioP2
10945;SDS011;5525;42.648;23.368;2024-03-08T00:02:11;12.68;;;8.00;;
10945;SDS011;5525;42.648;23.368;2024-03-08T00:04:40;11.20;;;7.75;;
10945;SDS011;5525;42.648;23.368;2024-03-08T00:07:07;11.95;;;7.78;;
10945;SDS011;5525;42.648;23.368;2024-03-08T00:09:34;11.48;;;7.45;;
10945;SDS011;5525;42.648;23.368;2024-03-08T00:12:01;11.75;;;7.63;;
10945;SDS011;5525;42.648;23.368;2024-03-08T00:14:28;11.65;;;8.18;;
10945;SDS011;5525;42.648;23.368;2024-03-08T00:16:55;11.65;;;7.95;;
10945;SDS011;5525;42.648;23.368;2024-03-08T00:19:22;12.50;;;7.35;;
10945;SDS011;5525;42.648;23.368;2024-03-08T00:21:50;11.80;;;7.65;;
10945;SDS011;5525;42.648;23.368;2024-03-08T00:24:16;11.25;;;7.53;;
10945;SDS011;5525;42.648;23.368;2024-03-08T00:26:43;12.68;;;8.35;;
10945;SDS011;5525;42.648;23.368;2024-03-08T00:29:10;12.10;;;7.45;;
10945;SDS011;5525;42.648;23.368;2024-03-08T00:31:38;11.25;;;7.32;;
10945;SDS011;5525;42.648;23.368;2024-03-08T00:34:05;10.93;;;7.15;;
10945;SDS011;5525;42.648;23.368;2024-03-08T00:36:32;9.75;;;6.50;;
10945;SDS011;5525;42.648;23.368;2024-03-08T00:39:00;8.48;;;6.15;;
10945;SDS011;5525;42.648;23.368;2024-03-08T00:41:28;7.93;;;5.78;;
10945;SDS011;5525;42.648;23.368;2024-03-08T00:43:55;10.25;;;6.20;;
10945;SDS011;5525;42.648;23.368;2024-03-08T00:46:21;9.57;;;5.75;;
10945;SDS011;5525;42.648;23.368;2024-03-08T00:48:48;8.35;;;6.13;;
10945;SDS011;5525;42.648;23.368;2024-03-08T00:51:15;9.27;;;6.38;;
10945;SDS011;5525;42.648;23.368;2024-03-08T00:53:43;9.82;;;6.30;;
10945;SDS011;5525;42.648;23.368;2024-03-08T00:56:11;9.55;;;6.53;;
10945;SDS011;5525;42.648;23.368;2024-03-08T00:58:38;9.13;;;6.07;;
10945;SDS011;5525;42.648;23.368;2024-03-08T01:01:05;8.35;;;5.55;;
10945;SDS011;5525;42.648;23.368;2024-03-08T01:03:32;9.68;;;6.38;;
10945;SDS011;5525;42.648;23.368;2024-03-08T01:05:59;7.95;;;6.28;;
10945;SDS011;5525;42.648;23.368;2024-03-08T01:08:27;7.97;;;5.20;;
10945;SDS011;5525;42.648;23.368;2024-03-08T01:10:54;7.90;;;5.07;;
10945;SDS011;5525;42.648;23.368;2024-03-08T01:13:22;6.22;;;3.90;;
10945;SDS011;5525;42.648;23.368;2024-03-08T01:15:49;6.80;;;4.43;;
10945;SDS011;5525;42.648;23.368;2024-03-08T01:18:15;5.47;;;4.05;;
10945;SDS011;5525;42.648;23.368;2024-03-08T01:20:42;5.78;;;4.13;;
10945;SDS011;5525;42.648;23.368;2024-03-08T01:23:09;5.55;;;3.75;;
10945;SDS011;5525;42.648;23.368;2024-03-08T01:25:36;4.70;;;3.67;;
10945;SDS011;5525;42.648;23.368;2024-03-08T01:28:03;4.32;;;3.35;;
10945;SDS011;5525;42.648;23.368;2024-03-08T01:30:32;4.00;;;2.70;;
10945;SDS011;5525;42.648;23.368;2024-03-08T01:33:00;4.00;;;2.80;;
10945;SDS011;5525;42.648;23.368;2024-03-08T01:35:27;3.83;;;2.70;;
10945;SDS011;5525;42.648;23.368;2024-03-08T01:37:54;3.10;;;2.60;;
10945;SDS011;5525;42.648;23.368;2024-03-08T01:40:21;2.97;;;2.50;;
10945;SDS011;5525;42.648;23.368;2024-03-08T01:42:48;3.55;;;2.55;;
10945;SDS011;5525;42.648;23.368;2024-03-08T01:45:15;4.47;;;3.17;;
10945;SDS011;5525;42.648;23.368;2024-03-08T01:47:43;3.33;;;2.65;;
10945;SDS011;5525;42.648;23.368;2024-03-08T01:50:13;3.60;;;3.00;;
10945;SDS011;5525;42.648;23.368;2024-03-08T01:52:41;3.35;;;2.78;;
10945;SDS011;5525;42.648;23.368;2024-03-08T01:55:08;3.88;;;3.00;;
10945;SDS011;5525;42.648;23.368;2024-03-08T01:57:36;3.08;;;2.70;;
10945;SDS011;5525;42.648;23.368;2024-03-08T02:00:03;2.75;;;2.47;;
10945;SDS011;5525;42.648;23.368;2024-03-08T02:02:31;3.47;;;2.60;;
10945;SDS011;5525;42.648;23.368;2024-03-08T02:05:01;3.22;;;2.75;;
10945;SDS011;5525;42.648;23.368;2024-03-08T02:07:28;4.07;;;2.90;;
10945;SDS011;5525;42.648;23.368;2024-03-08T02:09:55;2.75;;;2.55;;
10945;SDS011;5525;42.648;23.368;2024-03-08T02:12:21;3.40;;;2.90;;
10945;SDS011;5525;42.648;23.368;2024-03-08T02:14:48;2.80;;;2.45;;
10945;SDS011;5525;42.648;23.368;2024-03-08T02:17:15;4.65;;;2.97;;
10945;SDS011;5525;42.648;23.368;2024-03-08T02:19:42;3.72;;;2.63;;
10945;SDS011;5525;42.648;23.368;2024-03-08T02:22:10;2.92;;;2.42;;
10945;SDS011;5525;42.648;23.368;2024-03-08T02:24:37;7.03;;;6.30;;
10945;SDS011;5525;42.648;23.368;2024-03-08T02:27:04;3.05;;;2.72;;
10945;SDS011;5525;42.648;23.368;2024-03-08T02:29:31;2.95;;;2.25;;
10945;SDS011;5525;42.648;23.368;2024-03-08T02:32:00;12.07;;;11.00;;
10945;SDS011;5525;42.648;23.368;2024-03-08T02:34:28;3.97;;;2.85;;
10945;SDS011;5525;42.648;23.368;2024-03-08T02:36:56;4.45;;;2.65;;
10945;SDS011;5525;42.648;23.368;2024-03-08T02:39:24;3.10;;;2.20;;
10945;SDS011;5525;42.648;23.368;2024-03-08T02:41:52;3.55;;;2.50;;
10945;SDS011;5525;42.648;23.368;2024-03-08T02:44:19;3.45;;;2.50;;
10945;SDS011;5525;42.648;23.368;2024-03-08T02:46:46;3.03;;;2.30;;
10945;SDS011;5525;42.648;23.368;2024-03-08T02:49:13;2.50;;;2.28;;
10945;SDS011;5525;42.648;23.368;2024-03-08T02:51:41;6.05;;;2.97;;
10945;SDS011;5525;42.648;23.368;2024-03-08T02:54:08;4.07;;;2.78;;
10945;SDS011;5525;42.648;23.368;2024-03-08T02:56:36;2.20;;;1.90;;
10945;SDS011;5525;42.648;23.368;2024-03-08T02:59:03;2.13;;;1.92;;
10945;SDS011;5525;42.648;23.368;2024-03-08T03:01:30;2.35;;;2.13;;
10945;SDS011;5525;42.648;23.368;2024-03-08T03:03:57;3.25;;;2.17;;
10945;SDS011;5525;42.648;23.368;2024-03-08T03:06:24;2.67;;;2.17;;
10945;SDS011;5525;42.648;23.368;2024-03-08T03:08:51;2.30;;;2.10;;
10945;SDS011;5525;42.648;23.368;2024-03-08T03:11:18;2.88;;;2.22;;
10945;SDS011;5525;42.648;23.368;2024-03-08T03:13:46;2.40;;;2.20;;
10945;SDS011;5525;42.648;23.368;2024-03-08T03:16:16;2.30;;;2.10;;
10945;SDS011;5525;42.648;23.368;2024-03-08T03:18:44;1.70;;;1.60;;
10945;SDS011;5525;42.648;23.368;2024-03-08T03:21:11;2.10;;;1.90;;
10945;SDS011;5525;42.648;23.368;2024-03-08T03:23:38;3.50;;;1.42;;
10945;SDS011;5525;42.648;23.368;2024-03-08T03:26:07;1.70;;;1.42;;
10945;SDS011;5525;42.648;23.368;2024-03-08T03:28:37;1.92;;;1.30;;
10945;SDS011;5525;42.648;23.368;2024-03-08T03:31:06;1.63;;;1.30;;
10945;SDS011;5525;42.648;23.368;2024-03-08T03:33:32;1.88;;;1.42;;
10945;SDS011;5525;42.648;23.368;2024-03-08T03:36:02;2.03;;;1.40;;
10945;SDS011;5525;42.648;23.368;2024-03-08T03:38:30;1.45;;;1.35;;
10945;SDS011;5525;42.648;23.368;2024-03-08T03:40:57;3.13;;;1.65;;
10945;SDS011;5525;42.648;23.368;2024-03-08T03:43:29;2.03;;;1.13;;
10945;SDS011;5525;42.648;23.368;2024-03-08T03:45:56;1.45;;;1.35;;
10945;SDS011;5525;42.648;23.368;2024-03-08T03:48:24;1.60;;;1.40;;
10945;SDS011;5525;42.648;23.368;2024-03-08T03:50:51;2.00;;;1.30;;
10945;SDS011;5525;42.648;23.368;2024-03-08T03:53:18;1.48;;;1.30;;
10945;SDS011;5525;42.648;23.368;2024-03-08T03:55:45;1.30;;;0.88;;
10945;SDS011;5525;42.648;23.368;2024-03-08T03:58:11;2.55;;;1.70;;
10945;SDS011;5525;42.648;23.368;2024-03-08T04:00:39;3.13;;;1.60;;
10945;SDS011;5525;42.648;23.368;2024-03-08T04:03:06;1.98;;;1.50;;
10945;SDS011;5525;42.648;23.368;2024-03-08T04:05:35;3.25;;;1.80;;
10945;SDS011;5525;42.648;23.368;2024-03-08T04:08:01;3.85;;;1.88;;
10945;SDS011;5525;42.648;23.368;2024-03-08T04:10:28;2.65;;;1.50;;
10945;SDS011;5525;42.648;23.368;2024-03-08T04:12:55;1.90;;;1.27;;
10945;SDS011;5525;42.648;23.368;2024-03-08T04:15:22;1.73;;;1.05;;
10945;SDS011;5525;42.648;23.368;2024-03-08T04:17:49;1.38;;;1.27;;
10945;SDS011;5525;42.648;23.368;2024-03-08T04:20:16;1.13;;;1.02;;
10945;SDS011;5525;42.648;23.368;2024-03-08T04:22:44;1.52;;;1.20;;
10945;SDS011;5525;42.648;23.368;2024-03-08T04:25:12;1.40;;;1.10;;
10945;SDS011;5525;42.648;23.368;2024-03-08T04:27:39;1.15;;;1.05;;
10945;SDS011;5525;42.648;23.368;2024-03-08T04:30:07;1.65;;;1.25;;
10945;SDS011;5525;42.648;23.368;2024-03-08T04:32:35;1.25;;;1.15;;
10945;SDS011;5525;42.648;23.368;2024-03-08T04:35:01;1.50;;;1.30;;
10945;SDS011;5525;42.648;23.368;2024-03-08T04:37:29;1.40;;;1.20;;
10945;SDS011;5525;42.648;23.368;2024-03-08T04:39:57;1.45;;;1.33;;
10945;SDS011;5525;42.648;23.368;2024-03-08T04:42:24;1.67;;;1.13;;
10945;SDS011;5525;42.648;23.368;2024-03-08T04:44:51;2.67;;;1.30;;
10945;SDS011;5525;42.648;23.368;2024-03-08T04:47:18;1.42;;;1.23;;
10945;SDS011;5525;42.648;23.368;2024-03-08T04:49:45;1.38;;;1.13;;
10945;SDS011;5525;42.648;23.368;2024-03-08T04:52:13;3.25;;;1.42;;
10945;SDS011;5525;42.648;23.368;2024-03-08T04:54:39;1.27;;;1.13;;
10945;SDS011;5525;42.648;23.368;2024-03-08T04:57:07;1.95;;;1.50;;
10945;SDS011;5525;42.648;23.368;2024-03-08T04:59:34;2.05;;;1.77;;
10945;SDS011;5525;42.648;23.368;2024-03-08T05:02:02;2.33;;;2.13;;
10945;SDS011;5525;42.648;23.368;2024-03-08T05:04:29;2.13;;;1.92;;
10945;SDS011;5525;42.648;23.368;2024-03-08T05:06:55;2.40;;;2.20;;
10945;SDS011;5525;42.648;23.368;2024-03-08T05:09:22;3.45;;;1.70;;
10945;SDS011;5525;42.648;23.368;2024-03-08T05:11:49;1.38;;;1.25;;
10945;SDS011;5525;42.648;23.368;2024-03-08T05:14:17;1.90;;;1.70;;
10945;SDS011;5525;42.648;23.368;2024-03-08T05:16:45;1.52;;;1.33;;
10945;SDS011;5525;42.648;23.368;2024-03-08T05:19:13;1.40;;;1.20;;
10945;SDS011;5525;42.648;23.368;2024-03-08T05:21:41;1.25;;;1.15;;
10945;SDS011;5525;42.648;23.368;2024-03-08T05:24:08;2.55;;;2.08;;
10945;SDS011;5525;42.648;23.368;2024-03-08T05:26:35;1.60;;;1.50;;
10945;SDS011;5525;42.648;23.368;2024-03-08T05:29:03;2.22;;;2.03;;
10945;SDS011;5525;42.648;23.368;2024-03-08T05:31:31;3.55;;;3.15;;
10945;SDS011;5525;42.648;23.368;2024-03-08T05:34:05;2.15;;;1.80;;
10945;SDS011;5525;42.648;23.368;2024-03-08T05:36:35;1.60;;;1.50;;
10945;SDS011;5525;42.648;23.368;2024-03-08T05:39:02;2.15;;;1.67;;
10945;SDS011;5525;42.648;23.368;2024-03-08T05:41:31;2.08;;;1.85;;
10945;SDS011;5525;42.648;23.368;2024-03-08T05:43:58;4.63;;;2.83;;
10945;SDS011;5525;42.648;23.368;2024-03-08T05:46:24;4.05;;;3.03;;
10945;SDS011;5525;42.648;23.368;2024-03-08T05:48:53;4.97;;;3.20;;
10945;SDS011;5525;42.648;23.368;2024-03-08T05:51:20;4.90;;;3.47;;
10945;SDS011;5525;42.648;23.368;2024-03-08T05:53:47;6.25;;;4.15;;
10945;SDS011;5525;42.648;23.368;2024-03-08T05:56:13;6.53;;;4.20;;
10945;SDS011;5525;42.648;23.368;2024-03-08T05:58:41;7.38;;;4.30;;
10945;SDS011;5525;42.648;23.368;2024-03-08T06:01:07;8.80;;;4.75;;
10945;SDS011;5525;42.648;23.368;2024-03-08T06:03:37;6.72;;;4.53;;
10945;SDS011;5525;42.648;23.368;2024-03-08T06:06:11;7.22;;;4.50;;
10945;SDS011;5525;42.648;23.368;2024-03-08T06:08:38;9.13;;;4.63;;
10945;SDS011;5525;42.648;23.368;2024-03-08T06:11:05;7.20;;;4.55;;
10945;SDS011;5525;42.648;23.368;2024-03-08T06:13:32;7.30;;;4.40;;
10945;SDS011;5525;42.648;23.368;2024-03-08T06:15:59;7.70;;;4.53;;
10945;SDS011;5525;42.648;23.368;2024-03-08T06:18:29;5.80;;;4.30;;
10945;SDS011;5525;42.648;23.368;2024-03-08T06:20:57;5.70;;;4.40;;
10945;SDS011;5525;42.648;23.368;2024-03-08T06:23:25;7.60;;;5.30;;
10945;SDS011;5525;42.648;23.368;2024-03-08T06:25:52;7.40;;;5.03;;
10945;SDS011;5525;42.648;23.368;2024-03-08T06:28:19;8.95;;;5.72;;
10945;SDS011;5525;42.648;23.368;2024-03-08T06:30:46;7.63;;;5.22;;
10945;SDS011;5525;42.648;23.368;2024-03-08T06:33:13;10.90;;;5.57;;
10945;SDS011;5525;42.648;23.368;2024-03-08T06:35:41;7.13;;;5.40;;
10945;SDS011;5525;42.648;23.368;2024-03-08T06:38:08;8.00;;;5.53;;
10945;SDS011;5525;42.648;23.368;2024-03-08T06:40:36;7.32;;;4.90;;
10945;SDS011;5525;42.648;23.368;2024-03-08T06:43:03;6.63;;;4.80;;
10945;SDS011;5525;42.648;23.368;2024-03-08T06:45:31;6.75;;;5.00;;
10945;SDS011;5525;42.648;23.368;2024-03-08T06:47:57;8.73;;;5.30;;
10945;SDS011;5525;42.648;23.368;2024-03-08T06:50:24;6.63;;;4.65;;
10945;SDS011;5525;42.648;23.368;2024-03-08T06:52:51;6.82;;;5.18;;
10945;SDS011;5525;42.648;23.368;2024-03-08T06:55:18;7.40;;;5.00;;
10945;SDS011;5525;42.648;23.368;2024-03-08T06:57:47;7.32;;;5.25;;
10945;SDS011;5525;42.648;23.368;2024-03-08T07:00:14;7.50;;;5.45;;
10945;SDS011;5525;42.648;23.368;2024-03-08T07:02:43;6.30;;;5.28;;
10945;SDS011;5525;42.648;23.368;2024-03-08T07:05:10;7.25;;;5.18;;
10945;SDS011;5525;42.648;23.368;2024-03-08T07:07:37;6.20;;;4.80;;
10945;SDS011;5525;42.648;23.368;2024-03-08T07:10:06;7.50;;;5.22;;
10945;SDS011;5525;42.648;23.368;2024-03-08T07:12:36;7.18;;;5.05;;
10945;SDS011;5525;42.648;23.368;2024-03-08T07:15:05;6.38;;;5.07;;
10945;SDS011;5525;42.648;23.368;2024-03-08T07:17:32;6.75;;;5.32;;
10945;SDS011;5525;42.648;23.368;2024-03-08T07:20:00;6.20;;;4.90;;
10945;SDS011;5525;42.648;23.368;2024-03-08T07:22:32;7.05;;;4.80;;
10945;SDS011;5525;42.648;23.368;2024-03-08T07:24:59;5.88;;;4.85;;
10945;SDS011;5525;42.648;23.368;2024-03-08T07:27:44;5.57;;;4.55;;
10945;SDS011;5525;42.648;23.368;2024-03-08T07:30:13;6.38;;;4.13;;
10945;SDS011;5525;42.648;23.368;2024-03-08T07:33:01;6.43;;;4.70;;
10945;SDS011;5525;42.648;23.368;2024-03-08T07:35:28;4.75;;;3.20;;
10945;SDS011;5525;42.648;23.368;2024-03-08T07:37:56;3.92;;;3.20;;
10945;SDS011;5525;42.648;23.368;2024-03-08T07:40:25;4.53;;;3.72;;
10945;SDS011;5525;42.648;23.368;2024-03-08T07:42:52;3.78;;;3.10;;
10945;SDS011;5525;42.648;23.368;2024-03-08T07:45:20;4.75;;;3.00;;
10945;SDS011;5525;42.648;23.368;2024-03-08T07:47:47;4.13;;;3.53;;
10945;SDS011;5525;42.648;23.368;2024-03-08T07:50:14;4.45;;;3.40;;
10945;SDS011;5525;42.648;23.368;2024-03-08T07:52:41;4.65;;;3.25;;
10945;SDS011;5525;42.648;23.368;2024-03-08T07:55:08;5.45;;;3.20;;
10945;SDS011;5525;42.648;23.368;2024-03-08T07:57:36;4.15;;;3.17;;
10945;SDS011;5525;42.648;23.368;2024-03-08T08:00:04;4.38;;;3.03;;
10945;SDS011;5525;42.648;23.368;2024-03-08T08:02:34;4.22;;;3.75;;
10945;SDS011;5525;42.648;23.368;2024-03-08T08:05:01;5.05;;;4.10;;
10945;SDS011;5525;42.648;23.368;2024-03-08T08:07:29;5.18;;;3.83;;
10945;SDS011;5525;42.648;23.368;2024-03-08T08:09:55;5.68;;;4.38;;
10945;SDS011;5525;42.648;23.368;2024-03-08T08:12:22;16.52;;;4.57;;
10945;SDS011;5525;42.648;23.368;2024-03-08T08:14:49;9.55;;;4.40;;
10945;SDS011;5525;42.648;23.368;2024-03-08T08:17:16;9.07;;;4.40;;
10945;SDS011;5525;42.648;23.368;2024-03-08T08:19:44;6.50;;;4.40;;
10945;SDS011;5525;42.648;23.368;2024-03-08T08:22:11;7.00;;;4.63;;
10945;SDS011;5525;42.648;23.368;2024-03-08T08:24:38;4.22;;;3.55;;
10945;SDS011;5525;42.648;23.368;2024-03-08T08:27:05;5.97;;;4.10;;
10945;SDS011;5525;42.648;23.368;2024-03-08T08:29:32;7.95;;;4.05;;
10945;SDS011;5525;42.648;23.368;2024-03-08T08:32:00;5.13;;;3.88;;
10945;SDS011;5525;42.648;23.368;2024-03-08T08:34:27;7.93;;;4.60;;
10945;SDS011;5525;42.648;23.368;2024-03-08T08:36:56;4.68;;;3.63;;
10945;SDS011;5525;42.648;23.368;2024-03-08T08:39:23;4.40;;;3.47;;
10945;SDS011;5525;42.648;23.368;2024-03-08T08:41:50;3.50;;;3.20;;
10945;SDS011;5525;42.648;23.368;2024-03-08T08:44:17;5.80;;;3.67;;
10945;SDS011;5525;42.648;23.368;2024-03-08T08:46:44;4.32;;;3.70;;
10945;SDS011;5525;42.648;23.368;2024-03-08T08:49:11;6.53;;;4.20;;
10945;SDS011;5525;42.648;23.368;2024-03-08T08:51:39;5.85;;;3.53;;
10945;SDS011;5525;42.648;23.368;2024-03-08T08:54:07;4.63;;;3.38;;
10945;SDS011;5525;42.648;23.368;2024-03-08T08:56:34;3.90;;;3.33;;
10945;SDS011;5525;42.648;23.368;2024-03-08T08:59:02;7.18;;;3.65;;
10945;SDS011;5525;42.648;23.368;2024-03-08T09:01:29;6.55;;;3.30;;
10945;SDS011;5525;42.648;23.368;2024-03-08T09:03:56;4.20;;;3.53;;
10945;SDS011;5525;42.648;23.368;2024-03-08T09:06:23;7.70;;;2.90;;
10945;SDS011;5525;42.648;23.368;2024-03-08T09:08:50;5.55;;;3.30;;
10945;SDS011;5525;42.648;23.368;2024-03-08T09:11:19;3.47;;;2.88;;
10945;SDS011;5525;42.648;23.368;2024-03-08T09:13:46;8.73;;;3.53;;
10945;SDS011;5525;42.648;23.368;2024-03-08T09:16:14;4.90;;;3.10;;
10945;SDS011;5525;42.648;23.368;2024-03-08T09:18:41;4.07;;;3.20;;
10945;SDS011;5525;42.648;23.368;2024-03-08T09:21:08;7.97;;;3.25;;
10945;SDS011;5525;42.648;23.368;2024-03-08T09:23:35;8.70;;;3.72;;
10945;SDS011;5525;42.648;23.368;2024-03-08T09:26:02;3.35;;;2.42;;
10945;SDS011;5525;42.648;23.368;2024-03-08T09:28:30;4.75;;;2.95;;
10945;SDS011;5525;42.648;23.368;2024-03-08T09:30:57;3.15;;;2.85;;
10945;SDS011;5525;42.648;23.368;2024-03-08T09:33:26;7.25;;;2.97;;
10945;SDS011;5525;42.648;23.368;2024-03-08T09:35:54;3.08;;;2.78;;
10945;SDS011;5525;42.648;23.368;2024-03-08T09:38:22;7.18;;;2.88;;
10945;SDS011;5525;42.648;23.368;2024-03-08T09:40:50;2.72;;;2.33;;
10945;SDS011;5525;42.648;23.368;2024-03-08T09:43:18;3.03;;;2.72;;
10945;SDS011;5525;42.648;23.368;2024-03-08T09:45:47;3.10;;;2.65;;
10945;SDS011;5525;42.648;23.368;2024-03-08T09:48:16;2.88;;;2.50;;
10945;SDS011;5525;42.648;23.368;2024-03-08T09:50:45;3.20;;;2.22;;
10945;SDS011;5525;42.648;23.368;2024-03-08T09:53:13;2.30;;;2.10;;
10945;SDS011;5525;42.648;23.368;2024-03-08T09:55:40;3.47;;;2.30;;
10945;SDS011;5525;42.648;23.368;2024-03-08T09:58:10;3.38;;;2.22;;
10945;SDS011;5525;42.648;23.368;2024-03-08T10:01:03;3.72;;;2.40;;
10945;SDS011;5525;42.648;23.368;2024-03-08T10:03:31;4.68;;;2.60;;
10945;SDS011;5525;42.648;23.368;2024-03-08T10:05:58;4.25;;;2.33;;
10945;SDS011;5525;42.648;23.368;2024-03-08T10:08:26;4.38;;;2.50;;
10945;SDS011;5525;42.648;23.368;2024-03-08T10:10:54;2.75;;;2.13;;
10945;SDS011;5525;42.648;23.368;2024-03-08T10:13:23;4.15;;;2.38;;
10945;SDS011;5525;42.648;23.368;2024-03-08T10:15:52;4.22;;;2.33;;
10945;SDS011;5525;42.648;23.368;2024-03-08T10:18:20;3.13;;;1.95;;
10945;SDS011;5525;42.648;23.368;2024-03-08T10:20:53;2.63;;;2.20;;
10945;SDS011;5525;42.648;23.368;2024-03-08T10:23:29;6.22;;;2.22;;
10945;SDS011;5525;42.648;23.368;2024-03-08T10:25:56;2.70;;;2.05;;
10945;SDS011;5525;42.648;23.368;2024-03-08T10:28:24;2.75;;;2.13;;
10945;SDS011;5525;42.648;23.368;2024-03-08T10:30:51;2.70;;;2.30;;
10945;SDS011;5525;42.648;23.368;2024-03-08T10:33:18;2.95;;;2.42;;
10945;SDS011;5525;42.648;23.368;2024-03-08T10:35:46;2.85;;;2.55;;
10945;SDS011;5525;42.648;23.368;2024-03-08T10:38:13;4.47;;;2.13;;
10945;SDS011;5525;42.648;23.368;2024-03-08T10:40:46;5.20;;;2.53;;
10945;SDS011;5525;42.648;23.368;2024-03-08T10:43:18;3.00;;;2.13;;
10945;SDS011;5525;42.648;23.368;2024-03-08T10:45:50;7.70;;;2.65;;
10945;SDS011;5525;42.648;23.368;2024-03-08T10:48:31;10.93;;;2.80;;
10945;SDS011;5525;42.648;23.368;2024-03-08T10:51:04;5.35;;;2.20;;
10945;SDS011;5525;42.648;23.368;2024-03-08T10:53:32;3.53;;;2.00;;
10945;SDS011;5525;42.648;23.368;2024-03-08T10:56:02;2.72;;;1.60;;
10945;SDS011;5525;42.648;23.368;2024-03-08T10:58:29;3.35;;;1.92;;
10945;SDS011;5525;42.648;23.368;2024-03-08T11:00:57;2.90;;;1.70;;
10945;SDS011;5525;42.648;23.368;2024-03-08T11:06:29;2.45;;;1.52;;
10945;SDS011;5525;42.648;23.368;2024-03-08T11:09:08;1.90;;;1.80;;
10945;SDS011;5525;42.648;23.368;2024-03-08T11:11:42;1.80;;;1.65;;
10945;SDS011;5525;42.648;23.368;2024-03-08T11:14:42;3.75;;;1.90;;
10945;SDS011;5525;42.648;23.368;2024-03-08T11:17:10;2.58;;;1.90;;
10945;SDS011;5525;42.648;23.368;2024-03-08T11:19:37;1.70;;;1.60;;
10945;SDS011;5525;42.648;23.368;2024-03-08T11:22:07;11.13;;;2.75;;
10945;SDS011;5525;42.648;23.368;2024-03-08T11:24:48;2.97;;;1.75;;
10945;SDS011;5525;42.648;23.368;2024-03-08T11:27:15;2.72;;;1.98;;
10945;SDS011;5525;42.648;23.368;2024-03-08T11:29:42;4.50;;;1.63;;
10945;SDS011;5525;42.648;23.368;2024-03-08T11:32:10;1.92;;;1.52;;
10945;SDS011;5525;42.648;23.368;2024-03-08T11:34:38;1.67;;;1.58;;
10945;SDS011;5525;42.648;23.368;2024-03-08T11:37:13;1.88;;;1.60;;
10945;SDS011;5525;42.648;23.368;2024-03-08T11:39:46;1.90;;;1.40;;
10945;SDS011;5525;42.648;23.368;2024-03-08T11:42:14;1.92;;;1.42;;
10945;SDS011;5525;42.648;23.368;2024-03-08T11:44:42;5.72;;;1.70;;
10945;SDS011;5525;42.648;23.368;2024-03-08T11:47:09;1.50;;;1.40;;
10945;SDS011;5525;42.648;23.368;2024-03-08T11:49:37;1.92;;;1.55;;
10945;SDS011;5525;42.648;23.368;2024-03-08T11:52:04;1.42;;;1.33;;
10945;SDS011;5525;42.648;23.368;2024-03-08T11:54:32;2.20;;;1.40;;
10945;SDS011;5525;42.648;23.368;2024-03-08T11:57:01;1.52;;;1.42;;
10945;SDS011;5525;42.648;23.368;2024-03-08T11:59:28;3.20;;;1.80;;
10945;SDS011;5525;42.648;23.368;2024-03-08T12:02:00;2.40;;;1.40;;
10945;SDS011;5525;42.648;23.368;2024-03-08T12:04:28;1.60;;;1.50;;
10945;SDS011;5525;42.648;23.368;2024-03-08T12:06:57;2.15;;;1.65;;
10945;SDS011;5525;42.648;23.368;2024-03-08T12:09:27;1.60;;;1.50;;
10945;SDS011;5525;42.648;23.368;2024-03-08T12:11:55;7.20;;;1.95;;
10945;SDS011;5525;42.648;23.368;2024-03-08T12:14:24;2.97;;;1.77;;
10945;SDS011;5525;42.648;23.368;2024-03-08T12:16:51;6.93;;;1.85;;
10945;SDS011;5525;42.648;23.368;2024-03-08T12:19:18;3.85;;;1.77;;
10945;SDS011;5525;42.648;23.368;2024-03-08T12:21:45;1.65;;;1.55;;
10945;SDS011;5525;42.648;23.368;2024-03-08T12:24:15;5.22;;;2.00;;
10945;SDS011;5525;42.648;23.368;2024-03-08T12:26:45;2.58;;;1.80;;
10945;SDS011;5525;42.648;23.368;2024-03-08T12:29:21;1.70;;;1.35;;
10945;SDS011;5525;42.648;23.368;2024-03-08T12:31:53;3.92;;;1.65;;
10945;SDS011;5525;42.648;23.368;2024-03-08T12:34:20;2.65;;;1.50;;
10945;SDS011;5525;42.648;23.368;2024-03-08T12:36:48;3.20;;;1.63;;
10945;SDS011;5525;42.648;23.368;2024-03-08T12:39:17;2.72;;;1.50;;
10945;SDS011;5525;42.648;23.368;2024-03-08T12:41:47;1.58;;;1.48;;
10945;SDS011;5525;42.648;23.368;2024-03-08T12:44:14;1.58;;;1.48;;
10945;SDS011;5525;42.648;23.368;2024-03-08T12:46:43;3.50;;;1.55;;
10945;SDS011;5525;42.648;23.368;2024-03-08T12:49:11;2.05;;;1.80;;
10945;SDS011;5525;42.648;23.368;2024-03-08T12:51:38;6.32;;;1.70;;
10945;SDS011;5525;42.648;23.368;2024-03-08T12:54:06;1.67;;;1.58;;
10945;SDS011;5525;42.648;23.368;2024-03-08T12:56:34;2.05;;;1.80;;
10945;SDS011;5525;42.648;23.368;2024-03-08T12:59:02;2.72;;;1.90;;
10945;SDS011;5525;42.648;23.368;2024-03-08T13:01:30;1.80;;;1.70;;
10945;SDS011;5525;42.648;23.368;2024-03-08T13:03:59;2.10;;;1.60;;
10945;SDS011;5525;42.648;23.368;2024-03-08T13:06:27;1.67;;;1.48;;
10945;SDS011;5525;42.648;23.368;2024-03-08T13:08:57;2.05;;;1.50;;
10945;SDS011;5525;42.648;23.368;2024-03-08T13:11:29;2.50;;;1.83;;
10945;SDS011;5525;42.648;23.368;2024-03-08T13:13:56;1.65;;;1.55;;
10945;SDS011;5525;42.648;23.368;2024-03-08T13:16:24;3.53;;;1.73;;
10945;SDS011;5525;42.648;23.368;2024-03-08T13:18:54;2.83;;;2.10;;
10945;SDS011;5525;42.648;23.368;2024-03-08T13:21:24;1.95;;;1.70;;
10945;SDS011;5525;42.648;23.368;2024-03-08T13:23:50;2.25;;;1.55;;
10945;SDS011;5525;42.648;23.368;2024-03-08T13:26:18;2.80;;;1.60;;
10945;SDS011;5525;42.648;23.368;2024-03-08T13:28:45;1.98;;;1.63;;
10945;SDS011;5525;42.648;23.368;2024-03-08T13:31:13;2.42;;;1.70;;
10945;SDS011;5525;42.648;23.368;2024-03-08T13:33:41;2.15;;;1.80;;
10945;SDS011;5525;42.648;23.368;2024-03-08T13:36:10;2.65;;;1.55;;
10945;SDS011;5525;42.648;23.368;2024-03-08T13:38:42;1.77;;;1.60;;
10945;SDS011;5525;42.648;23.368;2024-03-08T13:41:09;2.25;;;1.80;;
10945;SDS011;5525;42.648;23.368;2024-03-08T13:43:39;3.47;;;1.90;;
10945;SDS011;5525;42.648;23.368;2024-03-08T13:46:06;3.47;;;1.80;;
10945;SDS011;5525;42.648;23.368;2024-03-08T13:48:35;3.47;;;1.80;;
10945;SDS011;5525;42.648;23.368;2024-03-08T13:51:06;2.30;;;1.70;;
10945;SDS011;5525;42.648;23.368;2024-03-08T13:53:35;1.63;;;1.52;;
10945;SDS011;5525;42.648;23.368;2024-03-08T13:56:04;1.80;;;1.50;;
10945;SDS011;5525;42.648;23.368;2024-03-08T13:58:35;1.50;;;1.40;;
10945;SDS011;5525;42.648;23.368;2024-03-08T14:01:02;1.95;;;1.73;;
10945;SDS011;5525;42.648;23.368;2024-03-08T14:03:31;1.90;;;1.70;;
10945;SDS011;5525;42.648;23.368;2024-03-08T14:05:58;2.25;;;1.70;;
10945;SDS011;5525;42.648;23.368;2024-03-08T14:08:25;3.13;;;1.65;;
10945;SDS011;5525;42.648;23.368;2024-03-08T14:10:52;2.25;;;1.52;;
10945;SDS011;5525;42.648;23.368;2024-03-08T14:13:20;3.38;;;1.80;;
10945;SDS011;5525;42.648;23.368;2024-03-08T14:15:48;1.77;;;1.67;;
10945;SDS011;5525;42.648;23.368;2024-03-08T14:18:17;2.13;;;1.80;;
10945;SDS011;5525;42.648;23.368;2024-03-08T14:20:43;1.98;;;1.75;;
10945;SDS011;5525;42.648;23.368;2024-03-08T14:23:11;4.00;;;1.95;;
10945;SDS011;5525;42.648;23.368;2024-03-08T14:25:38;2.28;;;1.90;;
10945;SDS011;5525;42.648;23.368;2024-03-08T14:28:05;2.67;;;2.00;;
10945;SDS011;5525;42.648;23.368;2024-03-08T14:30:34;2.80;;;2.15;;
10945;SDS011;5525;42.648;23.368;2024-03-08T14:33:03;2.25;;;2.05;;
10945;SDS011;5525;42.648;23.368;2024-03-08T14:35:34;3.33;;;2.20;;
10945;SDS011;5525;42.648;23.368;2024-03-08T14:38:01;3.20;;;2.03;;
10945;SDS011;5525;42.648;23.368;2024-03-08T14:40:28;5.10;;;2.55;;
10945;SDS011;5525;42.648;23.368;2024-03-08T14:42:55;3.83;;;2.30;;
10945;SDS011;5525;42.648;23.368;2024-03-08T14:45:22;2.58;;;2.25;;
10945;SDS011;5525;42.648;23.368;2024-03-08T14:47:52;2.72;;;2.22;;
10945;SDS011;5525;42.648;23.368;2024-03-08T14:50:20;3.25;;;2.40;;
10945;SDS011;5525;42.648;23.368;2024-03-08T14:52:49;3.70;;;2.70;;
10945;SDS011;5525;42.648;23.368;2024-03-08T14:55:16;2.95;;;2.35;;
10945;SDS011;5525;42.648;23.368;2024-03-08T14:57:45;3.60;;;2.60;;